sensor_id;sensor_type;location;lat;lon;timestamp;temperature;humidity
53800;DHT22;39708;53.210;6.948;2022-12-31T00:01:13;11.70;99.90
53800;DHT22;39708;53.210;6.948;2022-12-31T00:03:40;11.80;99.90
53800;DHT22;39708;53.210;6.948;2022-12-31T00:06:26;11.80;99.90
53800;DHT22;39708;53.210;6.948;2022-12-31T00:08:53;11.70;99.90
53800;DHT22;39708;53.210;6.948;2022-12-31T00:11:21;11.80;99.90
53800;DHT22;39708;53.210;6.948;2022-12-31T00:13:47;11.80;99.90
53800;DHT22;39708;53.210;6.948;2022-12-31T00:16:15;11.80;99.90
53800;DHT22;39708;53.210;6.948;2022-12-31T00:18:46;11.80;99.90
53800;DHT22;39708;53.210;6.948;2022-12-31T00:21:13;11.80;99.90
53800;DHT22;39708;53.210;6.948;2022-12-31T00:23:39;11.90;99.90
53800;DHT22;39708;53.210;6.948;2022-12-31T00:26:07;11.90;99.90
53800;DHT22;39708;53.210;6.948;2022-12-31T00:28:34;12.00;99.90
53800;DHT22;39708;53.210;6.948;2022-12-31T00:31:27;12.00;99.90
53800;DHT22;39708;53.210;6.948;2022-12-31T00:33:53;11.90;99.90
53800;DHT22;39708;53.210;6.948;2022-12-31T00:36:26;12.00;99.90
53800;DHT22;39708;53.210;6.948;2022-12-31T00:38:53;11.90;99.90
53800;DHT22;39708;53.210;6.948;2022-12-31T00:41:20;11.90;99.90
53800;DHT22;39708;53.210;6.948;2022-12-31T00:43:47;12.00;99.90
53800;DHT22;39708;53.210;6.948;2022-12-31T00:46:13;11.90;99.90
53800;DHT22;39708;53.210;6.948;2022-12-31T00:48:40;11.80;99.90
53800;DHT22;39708;53.210;6.948;2022-12-31T00:51:08;11.80;99.90
53800;DHT22;39708;53.210;6.948;2022-12-31T00:53:34;11.90;99.90
53800;DHT22;39708;53.210;6.948;2022-12-31T00:56:05;11.90;99.90
53800;DHT22;39708;53.210;6.948;2022-12-31T00:58:32;11.80;99.90
53800;DHT22;39708;53.210;6.948;2022-12-31T01:00:58;11.80;99.90
53800;DHT22;39708;53.210;6.948;2022-12-31T01:03:24;11.80;99.90
53800;DHT22;39708;53.210;6.948;2022-12-31T01:05:50;11.80;99.90
53800;DHT22;39708;53.210;6.948;2022-12-31T01:08:16;11.80;99.90
53800;DHT22;39708;53.210;6.948;2022-12-31T01:10:47;11.80;99.90
53800;DHT22;39708;53.210;6.948;2022-12-31T01:13:31;11.80;99.90
53800;DHT22;39708;53.210;6.948;2022-12-31T01:15:57;11.70;99.90
53800;DHT22;39708;53.210;6.948;2022-12-31T01:18:23;11.70;99.90
53800;DHT22;39708;53.210;6.948;2022-12-31T01:20:48;11.70;99.90
53800;DHT22;39708;53.210;6.948;2022-12-31T01:23:14;11.70;99.90
53800;DHT22;39708;53.210;6.948;2022-12-31T01:25:40;11.70;99.90
53800;DHT22;39708;53.210;6.948;2022-12-31T01:28:09;11.70;99.90
53800;DHT22;39708;53.210;6.948;2022-12-31T01:30:38;11.60;99.90
53800;DHT22;39708;53.210;6.948;2022-12-31T01:33:04;11.60;99.90
53800;DHT22;39708;53.210;6.948;2022-12-31T01:35:33;11.70;99.90
53800;DHT22;39708;53.210;6.948;2022-12-31T01:37:59;11.50;99.90
53800;DHT22;39708;53.210;6.948;2022-12-31T01:40:24;11.50;99.90
53800;DHT22;39708;53.210;6.948;2022-12-31T01:42:55;11.50;99.90
53800;DHT22;39708;53.210;6.948;2022-12-31T01:45:21;11.40;99.90
53800;DHT22;39708;53.210;6.948;2022-12-31T01:47:53;11.40;99.90
53800;DHT22;39708;53.210;6.948;2022-12-31T01:50:28;11.40;99.90
53800;DHT22;39708;53.210;6.948;2022-12-31T01:52:58;11.40;99.90
53800;DHT22;39708;53.210;6.948;2022-12-31T01:55:32;11.40;99.90
53800;DHT22;39708;53.210;6.948;2022-12-31T01:58:07;11.40;99.90
53800;DHT22;39708;53.210;6.948;2022-12-31T02:00:34;11.50;99.90
53800;DHT22;39708;53.210;6.948;2022-12-31T02:03:00;11.50;99.90
53800;DHT22;39708;53.210;6.948;2022-12-31T02:06:13;11.50;99.90
53800;DHT22;39708;53.210;6.948;2022-12-31T02:08:20;11.50;99.90
53800;DHT22;39708;53.210;6.948;2022-12-31T02:10:45;11.50;99.90
53800;DHT22;39708;53.210;6.948;2022-12-31T02:13:12;11.50;99.90
53800;DHT22;39708;53.210;6.948;2022-12-31T02:26:28;11.40;99.90
53800;DHT22;39708;53.210;6.948;2022-12-31T02:34:26;11.30;99.90
53800;DHT22;39708;53.210;6.948;2022-12-31T02:36:54;11.30;99.90
53800;DHT22;39708;53.210;6.948;2022-12-31T02:39:22;11.30;99.90
53800;DHT22;39708;53.210;6.948;2022-12-31T02:41:48;11.30;99.90
53800;DHT22;39708;53.210;6.948;2022-12-31T02:44:26;11.30;99.90
53800;DHT22;39708;53.210;6.948;2022-12-31T02:49:52;11.30;99.90
53800;DHT22;39708;53.210;6.948;2022-12-31T03:00:16;11.20;99.90
53800;DHT22;39708;53.210;6.948;2022-12-31T03:03:02;11.30;99.90
53800;DHT22;39708;53.210;6.948;2022-12-31T03:05:31;11.20;99.90
53800;DHT22;39708;53.210;6.948;2022-12-31T03:07:58;11.20;99.90
53800;DHT22;39708;53.210;6.948;2022-12-31T03:10:24;11.20;99.90
53800;DHT22;39708;53.210;6.948;2022-12-31T03:12:50;11.20;99.90
53800;DHT22;39708;53.210;6.948;2022-12-31T03:18:06;11.20;99.90
53800;DHT22;39708;53.210;6.948;2022-12-31T03:20:39;11.20;99.90
53800;DHT22;39708;53.210;6.948;2022-12-31T03:23:26;11.20;99.90
53800;DHT22;39708;53.210;6.948;2022-12-31T03:25:53;11.10;99.90
53800;DHT22;39708;53.210;6.948;2022-12-31T03:28:22;11.30;99.90
53800;DHT22;39708;53.210;6.948;2022-12-31T03:30:51;11.10;99.90
53800;DHT22;39708;53.210;6.948;2022-12-31T03:33:17;11.20;99.90
53800;DHT22;39708;53.210;6.948;2022-12-31T03:35:45;11.10;99.90
53800;DHT22;39708;53.210;6.948;2022-12-31T03:38:11;11.10;99.90
53800;DHT22;39708;53.210;6.948;2022-12-31T03:40:39;11.20;99.90
53800;DHT22;39708;53.210;6.948;2022-12-31T03:43:05;11.10;99.90
53800;DHT22;39708;53.210;6.948;2022-12-31T03:45:31;11.10;99.90
53800;DHT22;39708;53.210;6.948;2022-12-31T03:47:59;11.00;99.90
53800;DHT22;39708;53.210;6.948;2022-12-31T03:50:25;11.00;99.90
53800;DHT22;39708;53.210;6.948;2022-12-31T03:52:50;10.90;99.90
53800;DHT22;39708;53.210;6.948;2022-12-31T03:55:16;10.90;99.90
53800;DHT22;39708;53.210;6.948;2022-12-31T03:57:42;10.90;99.90
53800;DHT22;39708;53.210;6.948;2022-12-31T04:00:11;10.90;99.90
53800;DHT22;39708;53.210;6.948;2022-12-31T04:02:37;10.90;99.90
53800;DHT22;39708;53.210;6.948;2022-12-31T04:05:03;11.00;99.90
53800;DHT22;39708;53.210;6.948;2022-12-31T04:07:28;10.80;99.90
53800;DHT22;39708;53.210;6.948;2022-12-31T04:09:54;10.90;99.90
53800;DHT22;39708;53.210;6.948;2022-12-31T04:12:20;10.80;99.90
53800;DHT22;39708;53.210;6.948;2022-12-31T04:14:45;10.70;99.90
53800;DHT22;39708;53.210;6.948;2022-12-31T04:17:11;10.50;99.90
53800;DHT22;39708;53.210;6.948;2022-12-31T04:19:36;10.40;99.90
53800;DHT22;39708;53.210;6.948;2022-12-31T04:22:03;10.30;99.90
53800;DHT22;39708;53.210;6.948;2022-12-31T04:24:29;10.10;99.90
53800;DHT22;39708;53.210;6.948;2022-12-31T04:26:54;10.00;99.90
53800;DHT22;39708;53.210;6.948;2022-12-31T04:29:20;9.90;99.90
53800;DHT22;39708;53.210;6.948;2022-12-31T04:31:45;9.90;99.90
53800;DHT22;39708;53.210;6.948;2022-12-31T04:34:11;9.90;99.90
53800;DHT22;39708;53.210;6.948;2022-12-31T04:36:37;9.90;99.90
53800;DHT22;39708;53.210;6.948;2022-12-31T04:39:02;9.80;99.90
53800;DHT22;39708;53.210;6.948;2022-12-31T04:41:28;9.80;99.90
53800;DHT22;39708;53.210;6.948;2022-12-31T04:43:56;9.90;99.90
53800;DHT22;39708;53.210;6.948;2022-12-31T04:46:27;10.00;99.90
53800;DHT22;39708;53.210;6.948;2022-12-31T04:48:53;9.90;99.90
53800;DHT22;39708;53.210;6.948;2022-12-31T04:51:19;9.80;99.90
53800;DHT22;39708;53.210;6.948;2022-12-31T04:53:45;10.20;99.90
53800;DHT22;39708;53.210;6.948;2022-12-31T04:56:11;9.60;99.90
53800;DHT22;39708;53.210;6.948;2022-12-31T04:58:38;9.60;99.90
53800;DHT22;39708;53.210;6.948;2022-12-31T05:01:04;9.70;99.90
53800;DHT22;39708;53.210;6.948;2022-12-31T05:03:30;9.70;99.90
53800;DHT22;39708;53.210;6.948;2022-12-31T05:06:08;9.70;99.90
53800;DHT22;39708;53.210;6.948;2022-12-31T05:08:34;9.60;99.90
53800;DHT22;39708;53.210;6.948;2022-12-31T05:11:00;9.60;99.90
53800;DHT22;39708;53.210;6.948;2022-12-31T05:13:26;9.50;99.90
53800;DHT22;39708;53.210;6.948;2022-12-31T05:15:51;9.90;99.90
53800;DHT22;39708;53.210;6.948;2022-12-31T05:18:17;9.60;99.90
53800;DHT22;39708;53.210;6.948;2022-12-31T05:20:43;9.60;99.90
53800;DHT22;39708;53.210;6.948;2022-12-31T05:23:09;9.70;99.90
53800;DHT22;39708;53.210;6.948;2022-12-31T05:25:35;9.50;99.90
53800;DHT22;39708;53.210;6.948;2022-12-31T05:28:01;9.40;99.90
53800;DHT22;39708;53.210;6.948;2022-12-31T05:30:26;9.40;99.90
53800;DHT22;39708;53.210;6.948;2022-12-31T05:32:52;9.50;99.90
53800;DHT22;39708;53.210;6.948;2022-12-31T05:35:18;9.40;99.90
53800;DHT22;39708;53.210;6.948;2022-12-31T05:37:44;9.30;99.90
53800;DHT22;39708;53.210;6.948;2022-12-31T05:40:10;9.40;99.90
53800;DHT22;39708;53.210;6.948;2022-12-31T05:42:36;9.30;99.90
53800;DHT22;39708;53.210;6.948;2022-12-31T05:45:01;9.40;99.90
53800;DHT22;39708;53.210;6.948;2022-12-31T05:47:27;9.40;99.90
53800;DHT22;39708;53.210;6.948;2022-12-31T05:49:52;9.30;99.90
53800;DHT22;39708;53.210;6.948;2022-12-31T05:52:18;9.40;99.90
53800;DHT22;39708;53.210;6.948;2022-12-31T05:54:44;9.50;99.90
53800;DHT22;39708;53.210;6.948;2022-12-31T05:57:10;9.40;99.90
53800;DHT22;39708;53.210;6.948;2022-12-31T05:59:36;9.50;99.90
53800;DHT22;39708;53.210;6.948;2022-12-31T06:02:02;9.50;99.90
53800;DHT22;39708;53.210;6.948;2022-12-31T06:04:28;9.50;99.90
53800;DHT22;39708;53.210;6.948;2022-12-31T06:06:53;9.60;99.90
53800;DHT22;39708;53.210;6.948;2022-12-31T06:09:19;9.50;99.90
53800;DHT22;39708;53.210;6.948;2022-12-31T06:11:45;9.60;99.90
53800;DHT22;39708;53.210;6.948;2022-12-31T06:14:11;9.70;99.90
53800;DHT22;39708;53.210;6.948;2022-12-31T06:16:39;9.80;99.90
53800;DHT22;39708;53.210;6.948;2022-12-31T06:19:05;9.80;99.90
53800;DHT22;39708;53.210;6.948;2022-12-31T06:21:30;9.80;99.90
53800;DHT22;39708;53.210;6.948;2022-12-31T06:23:56;9.90;99.90
53800;DHT22;39708;53.210;6.948;2022-12-31T06:26:23;10.00;99.90
53800;DHT22;39708;53.210;6.948;2022-12-31T06:28:49;10.10;99.90
53800;DHT22;39708;53.210;6.948;2022-12-31T06:31:14;10.10;99.90
53800;DHT22;39708;53.210;6.948;2022-12-31T06:33:40;10.00;99.90
53800;DHT22;39708;53.210;6.948;2022-12-31T06:36:09;10.10;99.90
53800;DHT22;39708;53.210;6.948;2022-12-31T06:38:37;9.80;99.90
53800;DHT22;39708;53.210;6.948;2022-12-31T06:41:04;9.40;99.90
53800;DHT22;39708;53.210;6.948;2022-12-31T06:43:30;9.20;99.90
53800;DHT22;39708;53.210;6.948;2022-12-31T06:45:59;9.20;99.90
53800;DHT22;39708;53.210;6.948;2022-12-31T06:48:25;9.20;99.90
53800;DHT22;39708;53.210;6.948;2022-12-31T06:50:51;9.10;99.90
53800;DHT22;39708;53.210;6.948;2022-12-31T06:53:16;9.00;99.90
53800;DHT22;39708;53.210;6.948;2022-12-31T06:55:42;9.10;99.90
53800;DHT22;39708;53.210;6.948;2022-12-31T06:58:12;9.10;99.90
53800;DHT22;39708;53.210;6.948;2022-12-31T07:00:46;9.30;99.90
53800;DHT22;39708;53.210;6.948;2022-12-31T07:06:10;9.80;99.90
53800;DHT22;39708;53.210;6.948;2022-12-31T07:09:03;9.70;99.90
53800;DHT22;39708;53.210;6.948;2022-12-31T07:11:39;9.70;99.90
53800;DHT22;39708;53.210;6.948;2022-12-31T07:19:27;9.70;99.90
53800;DHT22;39708;53.210;6.948;2022-12-31T07:21:58;9.80;99.90
53800;DHT22;39708;53.210;6.948;2022-12-31T07:24:24;9.70;99.90
53800;DHT22;39708;53.210;6.948;2022-12-31T07:40:57;10.20;99.90
53800;DHT22;39708;53.210;6.948;2022-12-31T07:48:52;9.90;99.90
53800;DHT22;39708;53.210;6.948;2022-12-31T07:51:18;9.70;99.90
53800;DHT22;39708;53.210;6.948;2022-12-31T07:53:43;9.70;99.90
53800;DHT22;39708;53.210;6.948;2022-12-31T07:56:09;9.60;99.90
53800;DHT22;39708;53.210;6.948;2022-12-31T08:09:51;9.40;99.90
53800;DHT22;39708;53.210;6.948;2022-12-31T08:12:21;9.30;99.90
53800;DHT22;39708;53.210;6.948;2022-12-31T08:14:47;9.30;99.90
53800;DHT22;39708;53.210;6.948;2022-12-31T08:17:15;9.20;99.90
53800;DHT22;39708;53.210;6.948;2022-12-31T08:19:42;9.10;99.90
53800;DHT22;39708;53.210;6.948;2022-12-31T08:28:14;9.20;99.90
53800;DHT22;39708;53.210;6.948;2022-12-31T08:41:32;9.00;99.90
53800;DHT22;39708;53.210;6.948;2022-12-31T08:44:51;9.40;99.90
53800;DHT22;39708;53.210;6.948;2022-12-31T08:49:33;9.80;99.90
53800;DHT22;39708;53.210;6.948;2022-12-31T08:52:00;9.90;99.90
53800;DHT22;39708;53.210;6.948;2022-12-31T08:54:26;9.80;99.90
53800;DHT22;39708;53.210;6.948;2022-12-31T08:56:57;9.70;99.90
53800;DHT22;39708;53.210;6.948;2022-12-31T09:02:14;9.60;99.90
53800;DHT22;39708;53.210;6.948;2022-12-31T09:07:24;9.80;99.90
53800;DHT22;39708;53.210;6.948;2022-12-31T09:18:39;10.20;99.90
53800;DHT22;39708;53.210;6.948;2022-12-31T09:21:08;10.20;99.90
53800;DHT22;39708;53.210;6.948;2022-12-31T09:23:34;10.20;99.90
53800;DHT22;39708;53.210;6.948;2022-12-31T09:28:46;10.50;99.90
53800;DHT22;39708;53.210;6.948;2022-12-31T09:31:19;10.70;99.90
53800;DHT22;39708;53.210;6.948;2022-12-31T09:33:53;11.00;99.90
53800;DHT22;39708;53.210;6.948;2022-12-31T09:36:43;11.30;99.90
53800;DHT22;39708;53.210;6.948;2022-12-31T09:53:33;11.80;99.90
53800;DHT22;39708;53.210;6.948;2022-12-31T10:01:41;11.90;99.90
53800;DHT22;39708;53.210;6.948;2022-12-31T10:04:18;12.10;99.90
53800;DHT22;39708;53.210;6.948;2022-12-31T10:10:05;12.10;99.90
53800;DHT22;39708;53.210;6.948;2022-12-31T10:21:05;12.60;99.90
53800;DHT22;39708;53.210;6.948;2022-12-31T10:32:07;13.00;99.90
53800;DHT22;39708;53.210;6.948;2022-12-31T10:37:21;13.00;99.90
53800;DHT22;39708;53.210;6.948;2022-12-31T10:50:43;13.30;99.90
53800;DHT22;39708;53.210;6.948;2022-12-31T10:53:32;13.40;99.90
53800;DHT22;39708;53.210;6.948;2022-12-31T10:58:59;13.40;99.90
53800;DHT22;39708;53.210;6.948;2022-12-31T11:34:47;13.90;99.90
53800;DHT22;39708;53.210;6.948;2022-12-31T11:37:35;13.80;99.90
53800;DHT22;39708;53.210;6.948;2022-12-31T11:46:19;14.00;99.90
53800;DHT22;39708;53.210;6.948;2022-12-31T11:49:11;14.00;99.90
53800;DHT22;39708;53.210;6.948;2022-12-31T11:57:14;14.00;99.90
53800;DHT22;39708;53.210;6.948;2022-12-31T11:59:41;14.00;99.90
53800;DHT22;39708;53.210;6.948;2022-12-31T12:04:51;14.00;99.90
53800;DHT22;39708;53.210;6.948;2022-12-31T12:07:17;14.00;99.90
53800;DHT22;39708;53.210;6.948;2022-12-31T12:09:44;14.00;99.90
53800;DHT22;39708;53.210;6.948;2022-12-31T12:12:11;13.80;99.90
53800;DHT22;39708;53.210;6.948;2022-12-31T12:14:39;13.90;99.90
53800;DHT22;39708;53.210;6.948;2022-12-31T12:17:08;13.80;99.90
53800;DHT22;39708;53.210;6.948;2022-12-31T12:19:40;13.70;99.90
53800;DHT22;39708;53.210;6.948;2022-12-31T12:22:11;13.60;99.90
53800;DHT22;39708;53.210;6.948;2022-12-31T12:24:37;13.60;99.90
53800;DHT22;39708;53.210;6.948;2022-12-31T12:27:03;13.70;99.90
53800;DHT22;39708;53.210;6.948;2022-12-31T12:29:32;13.60;99.90
53800;DHT22;39708;53.210;6.948;2022-12-31T12:32:00;13.70;99.90
53800;DHT22;39708;53.210;6.948;2022-12-31T12:34:31;13.40;99.90
53800;DHT22;39708;53.210;6.948;2022-12-31T12:36:57;13.50;99.90
53800;DHT22;39708;53.210;6.948;2022-12-31T12:39:31;13.40;99.90
53800;DHT22;39708;53.210;6.948;2022-12-31T12:42:04;13.40;99.90
53800;DHT22;39708;53.210;6.948;2022-12-31T12:44:30;13.40;99.90
53800;DHT22;39708;53.210;6.948;2022-12-31T12:46:56;13.50;99.90
53800;DHT22;39708;53.210;6.948;2022-12-31T12:49:28;13.40;99.90
53800;DHT22;39708;53.210;6.948;2022-12-31T12:54:58;13.40;99.90
53800;DHT22;39708;53.210;6.948;2022-12-31T12:57:45;13.40;99.90
53800;DHT22;39708;53.210;6.948;2022-12-31T13:00:17;13.50;99.90
53800;DHT22;39708;53.210;6.948;2022-12-31T13:02:52;13.50;99.90
53800;DHT22;39708;53.210;6.948;2022-12-31T13:14:53;13.70;99.90
53800;DHT22;39708;53.210;6.948;2022-12-31T13:23:33;13.80;99.90
53800;DHT22;39708;53.210;6.948;2022-12-31T13:26:26;13.50;99.90
53800;DHT22;39708;53.210;6.948;2022-12-31T13:28:52;13.50;99.90
53800;DHT22;39708;53.210;6.948;2022-12-31T13:31:29;13.60;99.90
53800;DHT22;39708;53.210;6.948;2022-12-31T13:34:00;13.60;99.90
53800;DHT22;39708;53.210;6.948;2022-12-31T13:36:28;13.70;99.90
53800;DHT22;39708;53.210;6.948;2022-12-31T13:38:59;13.60;99.90
53800;DHT22;39708;53.210;6.948;2022-12-31T13:41:42;13.50;99.90
53800;DHT22;39708;53.210;6.948;2022-12-31T13:47:09;13.50;99.90
53800;DHT22;39708;53.210;6.948;2022-12-31T13:49:44;13.30;99.90
53800;DHT22;39708;53.210;6.948;2022-12-31T13:52:36;13.30;99.90
53800;DHT22;39708;53.210;6.948;2022-12-31T13:58:00;13.20;99.90
53800;DHT22;39708;53.210;6.948;2022-12-31T14:00:44;13.10;99.90
53800;DHT22;39708;53.210;6.948;2022-12-31T14:05:52;13.00;99.90
53800;DHT22;39708;53.210;6.948;2022-12-31T14:08:20;13.00;99.90
53800;DHT22;39708;53.210;6.948;2022-12-31T14:11:06;12.80;99.90
53800;DHT22;39708;53.210;6.948;2022-12-31T14:13:56;12.80;99.90
53800;DHT22;39708;53.210;6.948;2022-12-31T14:19:10;12.70;99.90
53800;DHT22;39708;53.210;6.948;2022-12-31T14:24:36;12.50;99.90
53800;DHT22;39708;53.210;6.948;2022-12-31T14:29:56;12.50;99.90
53800;DHT22;39708;53.210;6.948;2022-12-31T14:38:38;12.40;99.90
53800;DHT22;39708;53.210;6.948;2022-12-31T14:41:22;12.40;99.90
53800;DHT22;39708;53.210;6.948;2022-12-31T14:51:40;12.30;99.90
53800;DHT22;39708;53.210;6.948;2022-12-31T14:54:28;12.40;99.90
53800;DHT22;39708;53.210;6.948;2022-12-31T14:57:23;12.40;99.90
53800;DHT22;39708;53.210;6.948;2022-12-31T14:59:55;12.30;99.90
53800;DHT22;39708;53.210;6.948;2022-12-31T15:02:30;12.40;99.90
53800;DHT22;39708;53.210;6.948;2022-12-31T15:08:03;12.50;99.90
53800;DHT22;39708;53.210;6.948;2022-12-31T15:10:59;12.60;99.90
53800;DHT22;39708;53.210;6.948;2022-12-31T15:24:30;12.40;99.90
53800;DHT22;39708;53.210;6.948;2022-12-31T15:27:04;12.50;99.90
53800;DHT22;39708;53.210;6.948;2022-12-31T15:29:42;12.40;99.90
53800;DHT22;39708;53.210;6.948;2022-12-31T15:32:19;12.30;99.90
53800;DHT22;39708;53.210;6.948;2022-12-31T15:34:47;12.30;99.90
53800;DHT22;39708;53.210;6.948;2022-12-31T15:37:33;12.30;99.90
53800;DHT22;39708;53.210;6.948;2022-12-31T15:43:16;12.20;99.90
53800;DHT22;39708;53.210;6.948;2022-12-31T15:45:42;12.20;99.90
53800;DHT22;39708;53.210;6.948;2022-12-31T15:48:19;12.20;99.90
53800;DHT22;39708;53.210;6.948;2022-12-31T15:50:50;12.10;99.90
53800;DHT22;39708;53.210;6.948;2022-12-31T15:53:30;12.10;99.90
53800;DHT22;39708;53.210;6.948;2022-12-31T15:55:58;12.10;99.90
53800;DHT22;39708;53.210;6.948;2022-12-31T15:58:26;12.00;99.90
53800;DHT22;39708;53.210;6.948;2022-12-31T16:03:31;12.20;99.90
53800;DHT22;39708;53.210;6.948;2022-12-31T16:06:02;12.20;99.90
53800;DHT22;39708;53.210;6.948;2022-12-31T16:08:33;12.10;99.90
53800;DHT22;39708;53.210;6.948;2022-12-31T16:11:02;12.10;99.90
53800;DHT22;39708;53.210;6.948;2022-12-31T16:13:29;12.20;99.90
53800;DHT22;39708;53.210;6.948;2022-12-31T16:16:03;12.20;99.90
53800;DHT22;39708;53.210;6.948;2022-12-31T16:18:37;12.20;99.90
53800;DHT22;39708;53.210;6.948;2022-12-31T16:21:03;12.40;99.90
53800;DHT22;39708;53.210;6.948;2022-12-31T16:23:29;12.40;99.90
53800;DHT22;39708;53.210;6.948;2022-12-31T16:25:58;12.60;99.90
53800;DHT22;39708;53.210;6.948;2022-12-31T16:28:30;12.80;99.90
53800;DHT22;39708;53.210;6.948;2022-12-31T16:31:04;13.00;99.90
53800;DHT22;39708;53.210;6.948;2022-12-31T16:33:31;13.00;99.90
53800;DHT22;39708;53.210;6.948;2022-12-31T16:35:58;13.20;99.90
53800;DHT22;39708;53.210;6.948;2022-12-31T16:38:35;13.10;99.90
53800;DHT22;39708;53.210;6.948;2022-12-31T16:43:37;13.20;99.90
53800;DHT22;39708;53.210;6.948;2022-12-31T16:48:36;13.30;99.90
53800;DHT22;39708;53.210;6.948;2022-12-31T16:51:03;13.30;99.90
53800;DHT22;39708;53.210;6.948;2022-12-31T16:53:33;13.40;99.90
53800;DHT22;39708;53.210;6.948;2022-12-31T16:56:07;13.40;99.90
53800;DHT22;39708;53.210;6.948;2022-12-31T16:58:39;13.50;99.90
53800;DHT22;39708;53.210;6.948;2022-12-31T17:01:16;13.50;99.90
53800;DHT22;39708;53.210;6.948;2022-12-31T17:03:46;13.50;99.90
53800;DHT22;39708;53.210;6.948;2022-12-31T17:06:16;13.40;99.90
53800;DHT22;39708;53.210;6.948;2022-12-31T17:08:46;13.40;99.90
53800;DHT22;39708;53.210;6.948;2022-12-31T17:11:35;13.40;99.90
53800;DHT22;39708;53.210;6.948;2022-12-31T17:16:36;13.30;99.90
53800;DHT22;39708;53.210;6.948;2022-12-31T17:19:03;13.30;99.90
53800;DHT22;39708;53.210;6.948;2022-12-31T17:21:30;13.30;99.90
53800;DHT22;39708;53.210;6.948;2022-12-31T17:24:02;13.30;99.90
53800;DHT22;39708;53.210;6.948;2022-12-31T17:26:31;13.20;99.90
53800;DHT22;39708;53.210;6.948;2022-12-31T17:28:58;13.10;99.90
53800;DHT22;39708;53.210;6.948;2022-12-31T17:36:37;13.10;99.90
53800;DHT22;39708;53.210;6.948;2022-12-31T17:39:17;13.10;99.90
53800;DHT22;39708;53.210;6.948;2022-12-31T17:41:45;13.00;99.90
53800;DHT22;39708;53.210;6.948;2022-12-31T17:44:25;13.00;99.90
53800;DHT22;39708;53.210;6.948;2022-12-31T17:46:51;12.90;99.90
53800;DHT22;39708;53.210;6.948;2022-12-31T17:49:28;13.00;99.90
53800;DHT22;39708;53.210;6.948;2022-12-31T17:51:54;13.00;99.90
53800;DHT22;39708;53.210;6.948;2022-12-31T17:54:20;13.00;99.90
53800;DHT22;39708;53.210;6.948;2022-12-31T17:56:46;13.10;99.90
53800;DHT22;39708;53.210;6.948;2022-12-31T17:59:17;13.00;99.90
53800;DHT22;39708;53.210;6.948;2022-12-31T18:01:43;13.00;99.90
53800;DHT22;39708;53.210;6.948;2022-12-31T18:04:13;13.00;99.90
53800;DHT22;39708;53.210;6.948;2022-12-31T18:06:39;12.90;99.90
53800;DHT22;39708;53.210;6.948;2022-12-31T18:09:06;12.90;99.90
53800;DHT22;39708;53.210;6.948;2022-12-31T18:11:32;12.90;99.90
53800;DHT22;39708;53.210;6.948;2022-12-31T18:13:58;12.90;99.90
53800;DHT22;39708;53.210;6.948;2022-12-31T18:16:24;13.00;99.90
53800;DHT22;39708;53.210;6.948;2022-12-31T18:18:50;13.00;99.90
53800;DHT22;39708;53.210;6.948;2022-12-31T18:21:21;13.00;99.90
53800;DHT22;39708;53.210;6.948;2022-12-31T18:23:47;13.00;99.90
53800;DHT22;39708;53.210;6.948;2022-12-31T18:26:16;13.20;99.90
53800;DHT22;39708;53.210;6.948;2022-12-31T18:28:42;13.00;99.90
53800;DHT22;39708;53.210;6.948;2022-12-31T18:31:16;13.10;99.90
53800;DHT22;39708;53.210;6.948;2022-12-31T18:33:43;13.10;99.90
53800;DHT22;39708;53.210;6.948;2022-12-31T18:36:11;13.10;99.90
53800;DHT22;39708;53.210;6.948;2022-12-31T18:38:37;13.20;99.90
53800;DHT22;39708;53.210;6.948;2022-12-31T18:41:04;13.20;99.90
53800;DHT22;39708;53.210;6.948;2022-12-31T18:43:30;13.20;99.90
53800;DHT22;39708;53.210;6.948;2022-12-31T18:45:56;13.30;99.90
53800;DHT22;39708;53.210;6.948;2022-12-31T18:48:22;13.30;99.90
53800;DHT22;39708;53.210;6.948;2022-12-31T18:50:48;13.30;99.90
53800;DHT22;39708;53.210;6.948;2022-12-31T18:53:19;13.20;99.90
53800;DHT22;39708;53.210;6.948;2022-12-31T18:55:51;13.20;99.90
53800;DHT22;39708;53.210;6.948;2022-12-31T18:58:17;13.20;99.90
53800;DHT22;39708;53.210;6.948;2022-12-31T19:00:43;13.20;99.90
53800;DHT22;39708;53.210;6.948;2022-12-31T19:03:16;13.10;99.90
53800;DHT22;39708;53.210;6.948;2022-12-31T19:05:42;13.10;99.90
53800;DHT22;39708;53.210;6.948;2022-12-31T19:08:08;13.10;99.90
53800;DHT22;39708;53.210;6.948;2022-12-31T19:10:34;13.10;99.90
53800;DHT22;39708;53.210;6.948;2022-12-31T19:12:59;13.10;99.90
53800;DHT22;39708;53.210;6.948;2022-12-31T19:17:55;13.10;99.90
53800;DHT22;39708;53.210;6.948;2022-12-31T19:20:22;13.20;99.90
53800;DHT22;39708;53.210;6.948;2022-12-31T19:22:47;13.10;99.90
53800;DHT22;39708;53.210;6.948;2022-12-31T19:25:22;13.20;99.90
53800;DHT22;39708;53.210;6.948;2022-12-31T19:27:48;13.20;99.90
53800;DHT22;39708;53.210;6.948;2022-12-31T19:30:26;13.30;99.90
53800;DHT22;39708;53.210;6.948;2022-12-31T19:32:52;13.30;99.90
53800;DHT22;39708;53.210;6.948;2022-12-31T19:35:19;13.30;99.90
53800;DHT22;39708;53.210;6.948;2022-12-31T19:37:47;13.40;99.90
53800;DHT22;39708;53.210;6.948;2022-12-31T19:40:18;13.40;99.90
53800;DHT22;39708;53.210;6.948;2022-12-31T19:42:47;13.40;99.90
53800;DHT22;39708;53.210;6.948;2022-12-31T19:45:15;13.40;99.90
53800;DHT22;39708;53.210;6.948;2022-12-31T19:47:41;13.40;99.90
53800;DHT22;39708;53.210;6.948;2022-12-31T19:50:11;13.60;99.90
53800;DHT22;39708;53.210;6.948;2022-12-31T19:52:37;13.50;99.90
53800;DHT22;39708;53.210;6.948;2022-12-31T19:55:03;13.40;99.90
53800;DHT22;39708;53.210;6.948;2022-12-31T19:57:28;13.50;99.90
53800;DHT22;39708;53.210;6.948;2022-12-31T19:59:54;13.40;99.90
53800;DHT22;39708;53.210;6.948;2022-12-31T20:02:20;13.50;99.90
53800;DHT22;39708;53.210;6.948;2022-12-31T20:04:45;13.60;99.90
53800;DHT22;39708;53.210;6.948;2022-12-31T20:07:11;13.50;99.90
53800;DHT22;39708;53.210;6.948;2022-12-31T20:09:36;13.60;99.90
53800;DHT22;39708;53.210;6.948;2022-12-31T20:12:02;13.70;99.90
53800;DHT22;39708;53.210;6.948;2022-12-31T20:14:28;13.70;99.90
53800;DHT22;39708;53.210;6.948;2022-12-31T20:16:53;13.70;99.90
53800;DHT22;39708;53.210;6.948;2022-12-31T20:19:20;13.70;99.90
53800;DHT22;39708;53.210;6.948;2022-12-31T20:21:46;13.60;99.90
53800;DHT22;39708;53.210;6.948;2022-12-31T20:24:11;13.70;99.90
53800;DHT22;39708;53.210;6.948;2022-12-31T20:26:37;13.60;99.90
53800;DHT22;39708;53.210;6.948;2022-12-31T20:29:03;13.70;99.90
53800;DHT22;39708;53.210;6.948;2022-12-31T20:31:28;13.60;99.90
53800;DHT22;39708;53.210;6.948;2022-12-31T20:33:54;13.60;99.90
53800;DHT22;39708;53.210;6.948;2022-12-31T20:36:20;13.60;99.90
53800;DHT22;39708;53.210;6.948;2022-12-31T20:38:47;13.60;99.90
53800;DHT22;39708;53.210;6.948;2022-12-31T20:41:20;13.70;99.90
53800;DHT22;39708;53.210;6.948;2022-12-31T20:43:46;13.70;99.90